Seven Seas Mariner — C6VV8 — position and weather

sailwx.info

Track history (hours):
 
Tides and Currents Weather Stations Pressure Air Temp Water Temp Dewpoint Dewpoint Depression Visibility Wind Speed Wind Dir Waves Ship Positions

Seven Seas Mariner

Last reported at 2018-May-26 11:42 UTC. Time now 2018-May-27 17:14 UTC.
Position N 58°09' W 135°06'.

Length 216 m; draft 7 m.

Type: Passenger vessel. MMSI: 311622000.

Date/timePositionNaut miles runAvg speedWind from/ knotsBaromVisibWave heightAir tempDewpointWater temp
2018-May-26 11:42N 58°09' W 135°06'514.9
2018-May-26 11:22N 58°09' W 135°15'615.6
2018-May-26 11:00N 58°12' W 135°25'918.4
2018-May-26 10:30N 58°16' W 135°40'917.3
2018-May-26 10:00N 58°19' W 135°55'816.0
2018-May-26 09:30N 58°19' W 136°10'  
2018-May-21 08:50N 58°03' W 136°41'817.4
2018-May-21 08:21N 58°11' W 136°34'814.4
2018-May-21 07:46N 58°17' W 136°24'414.2
2018-May-21 07:30N 58°18' W 136°17'714.3
2018-May-21 07:00N 58°20' W 136°04'714.3
2018-May-21 06:30N 58°19' W 135°50'917.5
2018-May-21 06:00N 58°16' W 135°34'1020.3
2018-May-21 05:30N 58°12' W 135°17'  
2018-May-18 13:36N 55°17' W 131°30'318.8
2018-May-18 13:25N 55°14' W 131°26'2312.8
2018-May-18 11:38N 54°55' W 131°05'213.6
2018-May-18 11:30N 54°53' W 131°04'714.0
2018-May-18 11:00N 54°46' W 131°06'713.3
2018-May-18 10:30N 54°40' W 131°12'612.6
2018-May-18 10:00N 54°35' W 131°16'713.4
2018-May-18 09:30N 54°29' W 131°11'713.7
2018-May-18 09:00N 54°23' W 131°05'713.8
2018-May-18 08:31N 54°16' W 131°03'612.8
2018-May-18 08:00N 54°10' W 131°02'713.3
2018-May-18 07:31N 54°03' W 131°03'714.2
2018-May-18 07:00N 53°56' W 131°01'815.9
2018-May-18 06:31N 53°48' W 130°58'815.8
2018-May-18 06:00N 53°41' W 130°55'815.9
2018-May-18 05:31N 53°33' W 130°52'815.9
2018-May-18 05:01N 53°25' W 130°49'815.9
2018-May-18 04:30N 53°17' W 130°45'815.8
2018-May-18 04:01N 53°10' W 130°41'815.8
2018-May-18 03:30N 53°02' W 130°37'815.5
2018-May-18 03:00N 52°55' W 130°33'612.5
2018-May-18 02:30N 52°49' W 130°29'713.2
2018-May-18 02:00N 52°43' W 130°25'5 9.6
2018-May-18 01:30N 52°38' W 130°23'5 9.4
2018-May-18 01:00N 52°34' W 130°20'5 9.2
2018-May-18 00:30N 52°30' W 130°18'5 9.6
2018-May-18 00:00N 52°25' W 130°15'5 9.7
2018-May-17 23:30N 52°21' W 130°12'510.0
2018-May-17 23:00N 52°16' W 130°09'611.1
2018-May-17 22:30N 52°11' W 130°06'511.1
2018-May-17 22:00N 52°05' W 130°03'715.0
2018-May-17 21:30N 51°59' W 129°58'816.2
2018-May-17 21:00N 51°51' W 129°53'816.1
2018-May-17 20:30N 51°46' W 129°43'816.1
2018-May-17 20:00N 51°41' W 129°33'815.6
2018-May-17 19:30N 51°36' W 129°23'815.7
2018-May-17 19:00N 51°32' W 129°13'816.4
2018-May-17 18:30N 51°27' W 129°03'815.8
2018-May-17 18:00N 51°22' W 128°53'714.9
2018-May-17 17:30N 51°17' W 128°43'715.0
2018-May-17 17:00N 51°13' W 128°34'714.8
2018-May-17 16:30N 51°09' W 128°23'815.3
2018-May-17 16:00N 51°06' W 128°12'815.0
2018-May-17 15:30N 51°02' W 128°02'714.7
2018-May-17 15:00N 50°60' W 127°51'611.7
2018-May-17 14:31N 50°56' W 127°43'1121.0
2018-May-17 14:00N 50°51' W 127°29'1020.1
2018-May-17 13:31N 50°46' W 127°15'1019.7
2018-May-17 13:00N 50°43' W 127°00'919.1
2018-May-17 12:30N 50°38' W 126°47'1016.3
2018-May-17 11:52N 50°31' W 126°36'4617.3
2018-May-17 09:14N 50°20' W 125°26'314.3
2018-May-17 09:00N 50°17' W 125°24'816.7
2018-May-17 08:30N 50°09' W 125°21'611.4
2018-May-17 08:00N 50°05' W 125°16'612.5
2018-May-17 07:30N 49°59' W 125°12'714.8
2018-May-17 07:01N 49°54' W 125°04'714.9
2018-May-17 06:30N 49°49' W 124°55'714.3
2018-May-17 06:00N 49°44' W 124°47'713.0
2018-May-17 05:30N 49°39' W 124°40'713.7
2018-May-17 05:00N 49°33' W 124°33'714.6
2018-May-17 04:30N 49°28' W 124°26'815.1
2018-May-17 04:00N 49°25' W 124°15'714.8
2018-May-17 03:30N 49°23' W 124°04'915.0
2018-May-17 02:53N 49°21' W 123°50'2317.1
2018-May-17 01:34N 49°19' W 123°16'118.1
2018-May-17 01:30N 49°19' W 123°14'511.0
2018-May-17 01:01N 49°17' W 123°06'0 0.5
2018-May-17 00:28N 49°17' W 123°07'0 0.0
2018-May-16 23:58N 49°17' W 123°07'0 0.0
2018-May-16 23:28N 49°17' W 123°07'0 0.0
2018-May-16 22:58N 49°17' W 123°07'0 0.0
2018-May-16 22:28N 49°17' W 123°07'0 0.0
2018-May-16 21:58N 49°17' W 123°07'0 0.0
2018-May-16 21:28N 49°17' W 123°07'0 0.0
2018-May-16 20:58N 49°17' W 123°07'0 0.0
2018-May-16 20:28N 49°17' W 123°07'0 0.0
2018-May-16 19:58N 49°17' W 123°07'0 0.0
2018-May-16 19:28N 49°17' W 123°07'0 0.0
2018-May-16 18:58N 49°17' W 123°07'0 0.0
2018-May-16 18:28N 49°17' W 123°07'0 0.0
2018-May-16 17:55N 49°17' W 123°07'0 0.0
2018-May-16 17:28N 49°17' W 123°07'0 0.0
2018-May-16 16:58N 49°17' W 123°07'0 0.0
2018-May-16 16:28N 49°17' W 123°07'0 0.0
2018-May-16 15:58N 49°17' W 123°07'0 0.0
2018-May-16 15:28N 49°17' W 123°07'0 0.0
2018-May-16 14:58N 49°17' W 123°07'0 0.0
2018-May-16 14:28N 49°17' W 123°07'0 0.1
2018-May-16 14:01N 49°17' W 123°07'1 2.6
2018-May-16 13:31N 49°19' W 123°08'510.6
2018-May-16 13:00N 49°18' W 123°16'4 6.2
2018-May-16 12:23N 49°18' W 123°22'3 7.6
2018-May-16 12:00N 49°18' W 123°26'  
Track history (hours):
 
Tides and Currents Weather Stations Pressure Air Temp Water Temp Dewpoint Dewpoint Depression Visibility Wind Speed Wind Dir Waves Ship Positions

Seven Seas Mariner

Last reported at 2018-May-26 11:42 UTC. Time now 2018-May-27 17:14 UTC.
Position N 58°09' W 135°06'.

Length 216 m; draft 7 m.

Type: Passenger vessel. MMSI: 311622000.

Date/timePositionNaut miles runAvg speedWind from/ knotsBaromVisibWave heightAir tempDewpointWater temp
2018-May-26 11:42N 58°09' W 135°06'514.9
2018-May-26 11:22N 58°09' W 135°15'615.6
2018-May-26 11:00N 58°12' W 135°25'918.4
2018-May-26 10:30N 58°16' W 135°40'917.3
2018-May-26 10:00N 58°19' W 135°55'816.0
2018-May-26 09:30N 58°19' W 136°10'  
2018-May-21 08:50N 58°03' W 136°41'817.4
2018-May-21 08:21N 58°11' W 136°34'814.4
2018-May-21 07:46N 58°17' W 136°24'414.2
2018-May-21 07:30N 58°18' W 136°17'714.3
2018-May-21 07:00N 58°20' W 136°04'714.3
2018-May-21 06:30N 58°19' W 135°50'917.5
2018-May-21 06:00N 58°16' W 135°34'1020.3
2018-May-21 05:30N 58°12' W 135°17'  
2018-May-18 13:36N 55°17' W 131°30'318.8
2018-May-18 13:25N 55°14' W 131°26'2312.8
2018-May-18 11:38N 54°55' W 131°05'213.6
2018-May-18 11:30N 54°53' W 131°04'714.0
2018-May-18 11:00N 54°46' W 131°06'713.3
2018-May-18 10:30N 54°40' W 131°12'612.6
2018-May-18 10:00N 54°35' W 131°16'713.4
2018-May-18 09:30N 54°29' W 131°11'713.7
2018-May-18 09:00N 54°23' W 131°05'713.8
2018-May-18 08:31N 54°16' W 131°03'612.8
2018-May-18 08:00N 54°10' W 131°02'713.3
2018-May-18 07:31N 54°03' W 131°03'714.2
2018-May-18 07:00N 53°56' W 131°01'815.9
2018-May-18 06:31N 53°48' W 130°58'815.8
2018-May-18 06:00N 53°41' W 130°55'815.9
2018-May-18 05:31N 53°33' W 130°52'815.9
2018-May-18 05:01N 53°25' W 130°49'815.9
2018-May-18 04:30N 53°17' W 130°45'815.8
2018-May-18 04:01N 53°10' W 130°41'815.8
2018-May-18 03:30N 53°02' W 130°37'815.5
2018-May-18 03:00N 52°55' W 130°33'612.5
2018-May-18 02:30N 52°49' W 130°29'713.2
2018-May-18 02:00N 52°43' W 130°25'5 9.6
2018-May-18 01:30N 52°38' W 130°23'5 9.4
2018-May-18 01:00N 52°34' W 130°20'5 9.2
2018-May-18 00:30N 52°30' W 130°18'5 9.6
2018-May-18 00:00N 52°25' W 130°15'5 9.7
2018-May-17 23:30N 52°21' W 130°12'510.0
2018-May-17 23:00N 52°16' W 130°09'611.1
2018-May-17 22:30N 52°11' W 130°06'511.1
2018-May-17 22:00N 52°05' W 130°03'715.0
2018-May-17 21:30N 51°59' W 129°58'816.2
2018-May-17 21:00N 51°51' W 129°53'816.1
2018-May-17 20:30N 51°46' W 129°43'816.1
2018-May-17 20:00N 51°41' W 129°33'815.6
2018-May-17 19:30N 51°36' W 129°23'815.7
2018-May-17 19:00N 51°32' W 129°13'816.4
2018-May-17 18:30N 51°27' W 129°03'815.8
2018-May-17 18:00N 51°22' W 128°53'714.9
2018-May-17 17:30N 51°17' W 128°43'715.0
2018-May-17 17:00N 51°13' W 128°34'714.8
2018-May-17 16:30N 51°09' W 128°23'815.3
2018-May-17 16:00N 51°06' W 128°12'815.0
2018-May-17 15:30N 51°02' W 128°02'714.7
2018-May-17 15:00N 50°60' W 127°51'611.7
2018-May-17 14:31N 50°56' W 127°43'1121.0
2018-May-17 14:00N 50°51' W 127°29'1020.1
2018-May-17 13:31N 50°46' W 127°15'1019.7
2018-May-17 13:00N 50°43' W 127°00'919.1
2018-May-17 12:30N 50°38' W 126°47'1016.3
2018-May-17 11:52N 50°31' W 126°36'4617.3
2018-May-17 09:14N 50°20' W 125°26'314.3
2018-May-17 09:00N 50°17' W 125°24'816.7
2018-May-17 08:30N 50°09' W 125°21'611.4
2018-May-17 08:00N 50°05' W 125°16'612.5
2018-May-17 07:30N 49°59' W 125°12'714.8
2018-May-17 07:01N 49°54' W 125°04'714.9
2018-May-17 06:30N 49°49' W 124°55'714.3
2018-May-17 06:00N 49°44' W 124°47'713.0
2018-May-17 05:30N 49°39' W 124°40'713.7
2018-May-17 05:00N 49°33' W 124°33'714.6
2018-May-17 04:30N 49°28' W 124°26'815.1
2018-May-17 04:00N 49°25' W 124°15'714.8
2018-May-17 03:30N 49°23' W 124°04'915.0
2018-May-17 02:53N 49°21' W 123°50'2317.1
2018-May-17 01:34N 49°19' W 123°16'118.1
2018-May-17 01:30N 49°19' W 123°14'511.0
2018-May-17 01:01N 49°17' W 123°06'0 0.5
2018-May-17 00:28N 49°17' W 123°07'0 0.0
2018-May-16 23:58N 49°17' W 123°07'0 0.0
2018-May-16 23:28N 49°17' W 123°07'0 0.0
2018-May-16 22:58N 49°17' W 123°07'0 0.0
2018-May-16 22:28N 49°17' W 123°07'0 0.0
2018-May-16 21:58N 49°17' W 123°07'0 0.0
2018-May-16 21:28N 49°17' W 123°07'0 0.0
2018-May-16 20:58N 49°17' W 123°07'0 0.0
2018-May-16 20:28N 49°17' W 123°07'0 0.0
2018-May-16 19:58N 49°17' W 123°07'0 0.0
2018-May-16 19:28N 49°17' W 123°07'0 0.0
2018-May-16 18:58N 49°17' W 123°07'0 0.0
2018-May-16 18:28N 49°17' W 123°07'0 0.0
2018-May-16 17:55N 49°17' W 123°07'0 0.0
2018-May-16 17:28N 49°17' W 123°07'0 0.0
2018-May-16 16:58N 49°17' W 123°07'0 0.0
2018-May-16 16:28N 49°17' W 123°07'0 0.0
2018-May-16 15:58N 49°17' W 123°07'0 0.0
2018-May-16 15:28N 49°17' W 123°07'0 0.0
2018-May-16 14:58N 49°17' W 123°07'0 0.0
2018-May-16 14:28N 49°17' W 123°07'0 0.1
2018-May-16 14:01N 49°17' W 123°07'1 2.6
2018-May-16 13:31N 49°19' W 123°08'510.6
2018-May-16 13:00N 49°18' W 123°16'4 6.2
2018-May-16 12:23N 49°18' W 123°22'3 7.6
2018-May-16 12:00N 49°18' W 123°26'  

Dump ship's entire track history